Warning: Javascript must be enabled to use all the features on this page!


Page Loading - Please Wait...

Click to hideNews Bulletins

Peak Streamflow for the Nation

USGS 01336000 MOHAWK RIVER BELOW DELTA DAM NEAR ROME NY

Oneida County, New York
Hydrologic Unit Code 02020004
Latitude  43°15'52", Longitude  75°26'11" NAD83
Drainage area 152  square miles
Gage datum 472.34 feet above NAVD88
Output formats
Table
Graph
Tab-separated file
peakfq (watstore) format
Reselect output format
Water
Year
Date Gage
Height
(feet)
Stream-
flow
(cfs)
1928 1928-04-08 6.90 2,9302,6
1929 1929-05-03 5.40 1,9406
1930 1930-01-15 4.90 1,6006
1931 1931-04-11 4.90 1,5406
1932 1932-01-18 5.85 2,2206
1933 1932-11-02 5.60 2,0506
1934 1934-04-13 4.40 1,3006
1935 1935-07-09 8.10 4,0606
1936 1936-03-27 7.60 3,6106
1937 1937-01-15 6.80 2,8406
1938 1938-03-21 7.31 3,1106
1939 1938-12-13 4.67 1,4406
1940 1940-04-12 6.83 2,8306
1941 1940-12-31 4.35 1,2506
1942 1942-04-11 4.352 1,2506
1943 1943-03-22 6.25 2,4206
1944 1944-04-25 5.78 2,1306
1945 1945-09-30 6.37 2,5606
1946 1945-10-02 11.18 8,5606
1947 1947-05-22 9.86 6,3506
1948 1948-03-22 7.41 3,5406
1949 1949-03-28 5.00 1,6306
1950 1950-04-04 5.41 1,9206
1951 1951-04-13 5.52 1,9706
1952 1952-04-08 5.19 1,7506
1953 1953-05-03 4.88 1,5506
1954 1954-04-28 5.35 1,8606
1955 1955-04-15 5.33 1,8506
1956 1956-05-31 6.46 2,6106
1957 1957-04-23 4.08 1,0406
1958 1957-12-26 3.27 6696
1959 1959-05-20 4.802 1,4606
1960 1960-04-24 7.91 3,9606
1961 1961-06-22 5.54 1,9406
1962 1962-04-07 3.83 9366
1963 1963-04-04 6.21 2,4306
1964 1964-04-15 6.72 2,8406
1965 1965-04-22 5.95 2,2206
1966 1966-05-19 4.07 1,0406
1967 1967-05-12 3.56 7966
1968 1968-06-28 6.24 2,4506
1969 1969-05-20 10.02 6,6306
1970 1970-04-25 5.36 1,8106
1971 1971-05-04 5.12 1,6506
1972 1972-06-22 9.87 6,3606,9
1973 1973-04-05 6.27 2,4806
1974 1974-05-13 7.26 3,3206
1975 1975-09-26 8.44 4,5306
1976 1976-04-01 9.74 6,1906
1977 1977-03-31 7.03 3,1106
1978 1977-10-09 6.00 2,2606
1979 1979-04-03 7.13 3,2006
1980 1980-04-10 8.54 4,6606
1981 1980-11-12 3.86 9536
1982 1981-10-28 7.41 3,4906
1983 1983-04-16 7.80 3,8706
1984 1983-12-14 6.12 2,3606
1985 1985-01-02 6.52 2,7206
1986 1986-03-31 6.11 2,3606
1987 1987-04-05 4.66 1,3806
1988 1988-04-05 5.58 2,0906
1989 1989-03-31 6.58 2,7306
1990 1990-05-21 6.49 2,6506
1991 1990-12-31 8.02 4,1006
1992 1992-04-12 7.75 3,8206
1993 1993-04-11 8.80 4,9606
1994 1994-04-16 9.505 5,9002,6
1995 1994-12-07 4.88 1,6006
1996 1996-04-16 7.50 3,6706
1997 1997-04-29 5.00 1,7006
1998 1998-01-09 9.66 6,1006
1999 1999-04-07 4.91 1,6406
2000 2000-05-11 7.37 3,5506
2001 2001-06-23 6.41 2,7206
2002 2002-04-14 6.92 3,2406
2003 2003-05-13 5.26 1,9706
2004 2004-05-24 10.03 6,2306
2005 2005-04-03 7.20 3,3706
2006 2006-06-28 6.88 3,1006
2007 2006-10-20 8.01 4,1006
2008 2008-04-02 6.81 3,0406
2009 2009-04-04 6.57 2,8406
2010 2010-08-23 8.48 4,9806
2011 2011-04-28 8.78 5,6206
2012 2012-05-09 5.42 2,2306
2013 2013-07-02 6.23 2,9206
2014 2014-04-15 7.38 3,8706
2015 2015-04-14 5.10 1,8206
2016 2015-12-27 4.53 1,4506
2017 2017-04-07 7.53 3,9806
2018 2018-01-12 4.44 1,3606
2019 2019-05-11 5.46 2,0106
2020 2019-11-01 9.95 6,0706
2021 2021-08-19 11.68 8,1006
?
  Peak Gage-Height Qualification Codes.
?
  Peak Streamflow Qualification Codes.